sensor_id;sensor_type;location;lat;lon;timestamp;P1;durP1;ratioP1;P2;durP2;ratioP2
70761;SDS011;58360;0.000;0.000;2023-04-15T00:00:29;10.68;;;4.32;;
70761;SDS011;58360;0.000;0.000;2023-04-15T00:02:54;8.43;;;4.00;;
70761;SDS011;58360;0.000;0.000;2023-04-15T00:05:24;10.23;;;3.92;;
70761;SDS011;58360;0.000;0.000;2023-04-15T00:07:50;14.23;;;3.90;;
70761;SDS011;58360;0.000;0.000;2023-04-15T00:10:15;7.90;;;4.05;;
70761;SDS011;58360;0.000;0.000;2023-04-15T00:12:41;10.25;;;3.90;;
70761;SDS011;58360;0.000;0.000;2023-04-15T00:15:07;12.90;;;4.38;;
70761;SDS011;58360;0.000;0.000;2023-04-15T00:17:33;10.77;;;4.57;;
70761;SDS011;58360;0.000;0.000;2023-04-15T00:20:00;9.68;;;4.60;;
70761;SDS011;58360;0.000;0.000;2023-04-15T00:22:26;8.57;;;3.70;;
70761;SDS011;58360;0.000;0.000;2023-04-15T00:24:52;7.72;;;3.88;;
70761;SDS011;58360;0.000;0.000;2023-04-15T00:27:18;10.93;;;4.13;;
70761;SDS011;58360;0.000;0.000;2023-04-15T00:29:43;8.40;;;4.00;;
70761;SDS011;58360;0.000;0.000;2023-04-15T00:32:09;15.57;;;4.53;;
70761;SDS011;58360;0.000;0.000;2023-04-15T00:34:35;10.65;;;3.83;;
70761;SDS011;58360;0.000;0.000;2023-04-15T00:37:00;10.32;;;3.95;;
70761;SDS011;58360;0.000;0.000;2023-04-15T00:39:26;8.80;;;3.80;;
70761;SDS011;58360;0.000;0.000;2023-04-15T00:41:52;10.07;;;4.25;;
70761;SDS011;58360;0.000;0.000;2023-04-15T00:44:18;8.52;;;3.65;;
70761;SDS011;58360;0.000;0.000;2023-04-15T00:46:45;11.38;;;4.20;;
70761;SDS011;58360;0.000;0.000;2023-04-15T00:49:14;8.73;;;3.95;;
70761;SDS011;58360;0.000;0.000;2023-04-15T00:51:41;6.65;;;3.97;;
70761;SDS011;58360;0.000;0.000;2023-04-15T00:54:07;10.15;;;4.57;;
70761;SDS011;58360;0.000;0.000;2023-04-15T00:56:36;10.48;;;4.40;;
70761;SDS011;58360;0.000;0.000;2023-04-15T00:59:05;9.82;;;5.10;;
70761;SDS011;58360;0.000;0.000;2023-04-15T01:01:33;9.27;;;3.97;;
70761;SDS011;58360;0.000;0.000;2023-04-15T01:04:00;7.85;;;4.35;;
70761;SDS011;58360;0.000;0.000;2023-04-15T01:06:27;9.20;;;4.18;;
70761;SDS011;58360;0.000;0.000;2023-04-15T01:08:53;10.48;;;4.20;;
70761;SDS011;58360;0.000;0.000;2023-04-15T01:11:19;12.73;;;4.50;;
70761;SDS011;58360;0.000;0.000;2023-04-15T01:13:46;11.98;;;4.93;;
70761;SDS011;58360;0.000;0.000;2023-04-15T01:16:12;9.70;;;4.68;;
70761;SDS011;58360;0.000;0.000;2023-04-15T01:18:38;10.05;;;4.68;;
70761;SDS011;58360;0.000;0.000;2023-04-15T01:21:05;10.95;;;4.70;;
70761;SDS011;58360;0.000;0.000;2023-04-15T01:23:32;10.20;;;4.63;;
70761;SDS011;58360;0.000;0.000;2023-04-15T01:26:01;9.88;;;4.88;;
70761;SDS011;58360;0.000;0.000;2023-04-15T01:28:27;10.98;;;4.85;;
70761;SDS011;58360;0.000;0.000;2023-04-15T01:33:32;9.82;;;4.30;;
70761;SDS011;58360;0.000;0.000;2023-04-15T01:35:57;10.13;;;4.60;;
70761;SDS011;58360;0.000;0.000;2023-04-15T01:38:25;9.15;;;4.40;;
70761;SDS011;58360;0.000;0.000;2023-04-15T01:40:51;7.55;;;3.85;;
70761;SDS011;58360;0.000;0.000;2023-04-15T01:43:18;15.07;;;5.18;;
70761;SDS011;58360;0.000;0.000;2023-04-15T01:45:44;8.38;;;4.40;;
70761;SDS011;58360;0.000;0.000;2023-04-15T01:48:09;9.90;;;4.40;;
70761;SDS011;58360;0.000;0.000;2023-04-15T01:50:36;11.13;;;4.22;;
70761;SDS011;58360;0.000;0.000;2023-04-15T01:53:02;10.80;;;4.43;;
70761;SDS011;58360;0.000;0.000;2023-04-15T01:55:28;10.00;;;4.70;;
70761;SDS011;58360;0.000;0.000;2023-04-15T01:57:54;9.63;;;4.22;;
70761;SDS011;58360;0.000;0.000;2023-04-15T02:00:20;11.02;;;4.35;;
70761;SDS011;58360;0.000;0.000;2023-04-15T02:02:47;10.23;;;4.25;;
70761;SDS011;58360;0.000;0.000;2023-04-15T02:05:13;8.60;;;4.53;;
70761;SDS011;58360;0.000;0.000;2023-04-15T02:07:40;9.02;;;3.90;;
70761;SDS011;58360;0.000;0.000;2023-04-15T02:10:09;10.50;;;4.97;;
70761;SDS011;58360;0.000;0.000;2023-04-15T02:12:37;12.80;;;5.30;;
70761;SDS011;58360;0.000;0.000;2023-04-15T02:15:02;13.68;;;5.38;;
70761;SDS011;58360;0.000;0.000;2023-04-15T02:17:29;10.57;;;5.10;;
70761;SDS011;58360;0.000;0.000;2023-04-15T02:19:55;13.07;;;5.57;;
70761;SDS011;58360;0.000;0.000;2023-04-15T02:22:21;9.43;;;5.47;;
70761;SDS011;58360;0.000;0.000;2023-04-15T02:24:47;13.60;;;4.75;;
70761;SDS011;58360;0.000;0.000;2023-04-15T02:27:16;9.70;;;4.53;;
70761;SDS011;58360;0.000;0.000;2023-04-15T02:29:42;12.05;;;5.35;;
70761;SDS011;58360;0.000;0.000;2023-04-15T02:32:09;10.43;;;5.35;;
70761;SDS011;58360;0.000;0.000;2023-04-15T02:34:36;9.90;;;4.45;;
70761;SDS011;58360;0.000;0.000;2023-04-15T02:37:05;8.50;;;4.55;;
70761;SDS011;58360;0.000;0.000;2023-04-15T02:39:35;8.48;;;4.85;;
70761;SDS011;58360;0.000;0.000;2023-04-15T02:42:01;10.32;;;4.53;;
70761;SDS011;58360;0.000;0.000;2023-04-15T02:44:27;10.18;;;4.43;;
70761;SDS011;58360;0.000;0.000;2023-04-15T02:46:53;9.77;;;4.35;;
70761;SDS011;58360;0.000;0.000;2023-04-15T02:49:19;11.63;;;4.32;;
70761;SDS011;58360;0.000;0.000;2023-04-15T02:51:45;11.80;;;4.82;;
70761;SDS011;58360;0.000;0.000;2023-04-15T02:54:14;18.23;;;5.22;;
70761;SDS011;58360;0.000;0.000;2023-04-15T02:56:40;16.08;;;5.80;;
70761;SDS011;58360;0.000;0.000;2023-04-15T02:59:06;9.63;;;4.15;;
70761;SDS011;58360;0.000;0.000;2023-04-15T03:01:32;15.77;;;4.85;;
70761;SDS011;58360;0.000;0.000;2023-04-15T03:03:57;9.88;;;4.93;;
70761;SDS011;58360;0.000;0.000;2023-04-15T03:06:23;10.02;;;4.30;;
70761;SDS011;58360;0.000;0.000;2023-04-15T03:08:49;12.07;;;4.63;;
70761;SDS011;58360;0.000;0.000;2023-04-15T03:11:15;12.93;;;4.30;;
70761;SDS011;58360;0.000;0.000;2023-04-15T03:13:41;10.15;;;4.22;;
70761;SDS011;58360;0.000;0.000;2023-04-15T03:16:07;12.43;;;4.45;;
70761;SDS011;58360;0.000;0.000;2023-04-15T03:18:33;12.75;;;4.90;;
70761;SDS011;58360;0.000;0.000;2023-04-15T03:20:59;12.23;;;5.07;;
70761;SDS011;58360;0.000;0.000;2023-04-15T03:23:25;10.85;;;4.65;;
70761;SDS011;58360;0.000;0.000;2023-04-15T03:25:51;11.95;;;4.63;;
70761;SDS011;58360;0.000;0.000;2023-04-15T03:28:18;12.48;;;4.38;;
70761;SDS011;58360;0.000;0.000;2023-04-15T03:30:44;9.70;;;4.40;;
70761;SDS011;58360;0.000;0.000;2023-04-15T03:33:10;9.10;;;4.28;;
70761;SDS011;58360;0.000;0.000;2023-04-15T03:35:36;12.70;;;4.85;;
70761;SDS011;58360;0.000;0.000;2023-04-15T03:38:02;10.77;;;4.30;;
70761;SDS011;58360;0.000;0.000;2023-04-15T03:40:27;10.43;;;4.70;;
70761;SDS011;58360;0.000;0.000;2023-04-15T03:42:53;16.63;;;4.72;;
70761;SDS011;58360;0.000;0.000;2023-04-15T03:45:19;10.32;;;3.92;;
70761;SDS011;58360;0.000;0.000;2023-04-15T03:47:45;10.35;;;4.50;;
70761;SDS011;58360;0.000;0.000;2023-04-15T03:50:11;10.13;;;4.53;;
70761;SDS011;58360;0.000;0.000;2023-04-15T03:52:36;9.93;;;3.53;;
70761;SDS011;58360;0.000;0.000;2023-04-15T03:55:02;12.07;;;4.45;;
70761;SDS011;58360;0.000;0.000;2023-04-15T03:57:28;11.23;;;4.93;;
70761;SDS011;58360;0.000;0.000;2023-04-15T03:59:54;9.35;;;4.47;;
70761;SDS011;58360;0.000;0.000;2023-04-15T04:02:23;10.77;;;4.88;;
70761;SDS011;58360;0.000;0.000;2023-04-15T04:04:48;8.73;;;3.83;;
70761;SDS011;58360;0.000;0.000;2023-04-15T04:07:15;10.95;;;4.60;;
70761;SDS011;58360;0.000;0.000;2023-04-15T04:09:41;11.98;;;4.63;;
70761;SDS011;58360;0.000;0.000;2023-04-15T04:12:06;11.02;;;4.90;;
70761;SDS011;58360;0.000;0.000;2023-04-15T04:14:33;13.20;;;5.25;;
70761;SDS011;58360;0.000;0.000;2023-04-15T04:16:58;11.13;;;4.57;;
70761;SDS011;58360;0.000;0.000;2023-04-15T04:19:24;10.77;;;4.60;;
70761;SDS011;58360;0.000;0.000;2023-04-15T04:21:50;9.13;;;4.53;;
70761;SDS011;58360;0.000;0.000;2023-04-15T04:24:16;9.90;;;4.32;;
70761;SDS011;58360;0.000;0.000;2023-04-15T04:26:42;9.43;;;4.15;;
70761;SDS011;58360;0.000;0.000;2023-04-15T04:29:07;14.68;;;4.68;;
70761;SDS011;58360;0.000;0.000;2023-04-15T04:31:33;12.30;;;5.18;;
70761;SDS011;58360;0.000;0.000;2023-04-15T04:33:59;11.20;;;5.00;;
70761;SDS011;58360;0.000;0.000;2023-04-15T04:36:24;10.32;;;4.40;;
70761;SDS011;58360;0.000;0.000;2023-04-15T04:38:50;10.90;;;4.78;;
70761;SDS011;58360;0.000;0.000;2023-04-15T04:41:16;7.90;;;4.57;;
70761;SDS011;58360;0.000;0.000;2023-04-15T04:43:42;15.90;;;4.97;;
70761;SDS011;58360;0.000;0.000;2023-04-15T04:46:08;11.68;;;5.18;;
70761;SDS011;58360;0.000;0.000;2023-04-15T04:48:34;9.57;;;4.90;;
70761;SDS011;58360;0.000;0.000;2023-04-15T04:51:00;11.35;;;5.05;;
70761;SDS011;58360;0.000;0.000;2023-04-15T04:53:26;13.93;;;5.57;;
70761;SDS011;58360;0.000;0.000;2023-04-15T04:55:52;11.82;;;5.82;;
70761;SDS011;58360;0.000;0.000;2023-04-15T04:58:17;13.23;;;5.78;;
70761;SDS011;58360;0.000;0.000;2023-04-15T05:00:43;10.82;;;5.22;;
70761;SDS011;58360;0.000;0.000;2023-04-15T05:03:09;11.70;;;5.25;;
70761;SDS011;58360;0.000;0.000;2023-04-15T05:05:35;12.02;;;5.28;;
70761;SDS011;58360;0.000;0.000;2023-04-15T05:08:03;10.77;;;5.60;;
70761;SDS011;58360;0.000;0.000;2023-04-15T05:10:29;11.52;;;4.90;;
70761;SDS011;58360;0.000;0.000;2023-04-15T05:12:55;12.27;;;5.85;;
70761;SDS011;58360;0.000;0.000;2023-04-15T05:15:21;9.23;;;5.35;;
70761;SDS011;58360;0.000;0.000;2023-04-15T05:17:47;11.80;;;5.60;;
70761;SDS011;58360;0.000;0.000;2023-04-15T05:20:12;8.55;;;5.03;;
70761;SDS011;58360;0.000;0.000;2023-04-15T05:22:38;14.25;;;5.80;;
70761;SDS011;58360;0.000;0.000;2023-04-15T05:25:04;13.90;;;5.88;;
70761;SDS011;58360;0.000;0.000;2023-04-15T05:27:30;13.77;;;5.93;;
70761;SDS011;58360;0.000;0.000;2023-04-15T05:29:55;15.13;;;6.43;;
70761;SDS011;58360;0.000;0.000;2023-04-15T05:32:21;12.80;;;5.97;;
70761;SDS011;58360;0.000;0.000;2023-04-15T05:34:47;18.90;;;5.60;;
70761;SDS011;58360;0.000;0.000;2023-04-15T05:37:13;11.57;;;5.35;;
70761;SDS011;58360;0.000;0.000;2023-04-15T05:39:38;15.48;;;5.53;;
70761;SDS011;58360;0.000;0.000;2023-04-15T05:42:04;12.93;;;5.70;;
70761;SDS011;58360;0.000;0.000;2023-04-15T05:44:30;16.33;;;5.35;;
70761;SDS011;58360;0.000;0.000;2023-04-15T05:46:56;13.73;;;6.15;;
70761;SDS011;58360;0.000;0.000;2023-04-15T05:49:22;12.90;;;5.97;;
70761;SDS011;58360;0.000;0.000;2023-04-15T05:51:47;12.32;;;6.13;;
70761;SDS011;58360;0.000;0.000;2023-04-15T05:54:13;16.85;;;7.10;;
70761;SDS011;58360;0.000;0.000;2023-04-15T05:56:39;14.75;;;6.63;;
70761;SDS011;58360;0.000;0.000;2023-04-15T05:59:05;17.45;;;6.63;;
70761;SDS011;58360;0.000;0.000;2023-04-15T06:01:32;14.80;;;6.25;;
70761;SDS011;58360;0.000;0.000;2023-04-15T06:03:58;12.38;;;6.78;;
70761;SDS011;58360;0.000;0.000;2023-04-15T06:06:24;15.00;;;6.97;;
70761;SDS011;58360;0.000;0.000;2023-04-15T06:08:51;15.45;;;6.70;;
70761;SDS011;58360;0.000;0.000;2023-04-15T06:11:18;23.85;;;7.35;;
70761;SDS011;58360;0.000;0.000;2023-04-15T06:13:45;15.07;;;8.25;;
70761;SDS011;58360;0.000;0.000;2023-04-15T06:16:11;14.55;;;6.85;;
70761;SDS011;58360;0.000;0.000;2023-04-15T06:18:37;13.25;;;7.03;;
70761;SDS011;58360;0.000;0.000;2023-04-15T06:21:03;14.93;;;6.47;;
70761;SDS011;58360;0.000;0.000;2023-04-15T06:23:29;14.07;;;7.25;;
70761;SDS011;58360;0.000;0.000;2023-04-15T06:25:54;12.02;;;7.10;;
70761;SDS011;58360;0.000;0.000;2023-04-15T06:28:20;16.02;;;7.75;;
70761;SDS011;58360;0.000;0.000;2023-04-15T06:30:46;15.18;;;7.75;;
70761;SDS011;58360;0.000;0.000;2023-04-15T06:33:11;12.98;;;7.78;;
70761;SDS011;58360;0.000;0.000;2023-04-15T06:35:37;13.52;;;7.50;;
70761;SDS011;58360;0.000;0.000;2023-04-15T06:38:03;18.13;;;9.00;;
70761;SDS011;58360;0.000;0.000;2023-04-15T06:40:29;20.83;;;8.52;;
70761;SDS011;58360;0.000;0.000;2023-04-15T06:42:55;13.63;;;7.97;;
70761;SDS011;58360;0.000;0.000;2023-04-15T06:45:21;17.30;;;9.27;;
70761;SDS011;58360;0.000;0.000;2023-04-15T06:47:46;17.65;;;9.05;;
70761;SDS011;58360;0.000;0.000;2023-04-15T06:50:12;15.27;;;8.48;;
70761;SDS011;58360;0.000;0.000;2023-04-15T06:52:38;19.33;;;9.45;;
70761;SDS011;58360;0.000;0.000;2023-04-15T06:55:05;17.55;;;9.77;;
70761;SDS011;58360;0.000;0.000;2023-04-15T06:57:31;16.17;;;9.73;;
70761;SDS011;58360;0.000;0.000;2023-04-15T06:59:57;13.95;;;9.50;;
70761;SDS011;58360;0.000;0.000;2023-04-15T07:02:23;17.80;;;9.25;;
70761;SDS011;58360;0.000;0.000;2023-04-15T07:04:50;17.73;;;10.02;;
70761;SDS011;58360;0.000;0.000;2023-04-15T07:07:15;18.15;;;9.43;;
70761;SDS011;58360;0.000;0.000;2023-04-15T07:09:41;15.45;;;9.15;;
70761;SDS011;58360;0.000;0.000;2023-04-15T07:12:07;14.68;;;8.75;;
70761;SDS011;58360;0.000;0.000;2023-04-15T07:14:33;18.67;;;8.15;;
70761;SDS011;58360;0.000;0.000;2023-04-15T07:16:59;14.25;;;8.02;;
70761;SDS011;58360;0.000;0.000;2023-04-15T07:19:24;15.43;;;7.63;;
70761;SDS011;58360;0.000;0.000;2023-04-15T07:21:50;16.33;;;7.20;;
70761;SDS011;58360;0.000;0.000;2023-04-15T07:24:16;13.98;;;7.88;;
70761;SDS011;58360;0.000;0.000;2023-04-15T07:26:43;16.33;;;7.28;;
70761;SDS011;58360;0.000;0.000;2023-04-15T07:29:09;12.90;;;6.95;;
70761;SDS011;58360;0.000;0.000;2023-04-15T07:31:35;11.68;;;6.75;;
70761;SDS011;58360;0.000;0.000;2023-04-15T07:34:01;14.48;;;7.13;;
70761;SDS011;58360;0.000;0.000;2023-04-15T07:36:28;14.20;;;6.47;;
70761;SDS011;58360;0.000;0.000;2023-04-15T07:38:54;16.02;;;7.85;;
70761;SDS011;58360;0.000;0.000;2023-04-15T07:41:20;13.25;;;6.88;;
70761;SDS011;58360;0.000;0.000;2023-04-15T07:43:46;12.20;;;6.50;;
70761;SDS011;58360;0.000;0.000;2023-04-15T07:46:12;9.90;;;5.95;;
70761;SDS011;58360;0.000;0.000;2023-04-15T07:48:38;12.07;;;6.50;;
70761;SDS011;58360;0.000;0.000;2023-04-15T07:51:04;10.23;;;6.47;;
70761;SDS011;58360;0.000;0.000;2023-04-15T07:53:30;17.10;;;6.40;;
70761;SDS011;58360;0.000;0.000;2023-04-15T07:55:57;10.10;;;6.53;;
70761;SDS011;58360;0.000;0.000;2023-04-15T07:58:23;15.63;;;6.32;;
70761;SDS011;58360;0.000;0.000;2023-04-15T08:00:49;13.55;;;6.60;;
70761;SDS011;58360;0.000;0.000;2023-04-15T08:03:15;13.55;;;6.05;;
70761;SDS011;58360;0.000;0.000;2023-04-15T08:05:45;13.65;;;6.13;;
70761;SDS011;58360;0.000;0.000;2023-04-15T08:08:11;11.10;;;5.78;;
70761;SDS011;58360;0.000;0.000;2023-04-15T08:10:36;12.15;;;6.07;;
70761;SDS011;58360;0.000;0.000;2023-04-15T08:13:02;8.70;;;5.20;;
70761;SDS011;58360;0.000;0.000;2023-04-15T08:15:28;12.90;;;6.15;;
70761;SDS011;58360;0.000;0.000;2023-04-15T08:17:53;11.05;;;5.38;;
70761;SDS011;58360;0.000;0.000;2023-04-15T08:20:19;10.40;;;5.15;;
70761;SDS011;58360;0.000;0.000;2023-04-15T08:22:45;11.82;;;5.70;;
70761;SDS011;58360;0.000;0.000;2023-04-15T08:25:15;9.73;;;5.17;;
70761;SDS011;58360;0.000;0.000;2023-04-15T08:27:41;8.35;;;5.25;;
70761;SDS011;58360;0.000;0.000;2023-04-15T08:30:07;9.60;;;5.05;;
70761;SDS011;58360;0.000;0.000;2023-04-15T08:32:33;8.45;;;5.53;;
70761;SDS011;58360;0.000;0.000;2023-04-15T08:34:59;9.90;;;5.38;;
70761;SDS011;58360;0.000;0.000;2023-04-15T08:37:25;11.02;;;5.40;;
70761;SDS011;58360;0.000;0.000;2023-04-15T08:39:51;14.27;;;5.50;;
70761;SDS011;58360;0.000;0.000;2023-04-15T08:42:18;8.55;;;5.38;;
70761;SDS011;58360;0.000;0.000;2023-04-15T08:45:01;8.73;;;4.93;;
70761;SDS011;58360;0.000;0.000;2023-04-15T08:47:29;9.95;;;5.47;;
70761;SDS011;58360;0.000;0.000;2023-04-15T08:49:58;8.98;;;4.95;;
70761;SDS011;58360;0.000;0.000;2023-04-15T08:52:29;7.47;;;4.50;;
70761;SDS011;58360;0.000;0.000;2023-04-15T08:54:56;7.25;;;4.43;;
70761;SDS011;58360;0.000;0.000;2023-04-15T08:57:29;7.53;;;3.70;;
70761;SDS011;58360;0.000;0.000;2023-04-15T08:59:56;6.35;;;3.30;;
70761;SDS011;58360;0.000;0.000;2023-04-15T09:02:22;8.43;;;3.53;;
70761;SDS011;58360;0.000;0.000;2023-04-15T09:04:50;7.55;;;4.18;;
70761;SDS011;58360;0.000;0.000;2023-04-15T09:07:16;8.45;;;4.20;;
70761;SDS011;58360;0.000;0.000;2023-04-15T09:09:41;9.63;;;4.15;;
70761;SDS011;58360;0.000;0.000;2023-04-15T09:12:07;7.72;;;4.22;;
70761;SDS011;58360;0.000;0.000;2023-04-15T09:14:34;7.18;;;4.32;;
70761;SDS011;58360;0.000;0.000;2023-04-15T09:17:03;6.35;;;3.90;;
70761;SDS011;58360;0.000;0.000;2023-04-15T09:19:29;10.93;;;3.80;;
70761;SDS011;58360;0.000;0.000;2023-04-15T09:21:57;8.20;;;3.88;;
70761;SDS011;58360;0.000;0.000;2023-04-15T09:24:27;7.50;;;3.65;;
70761;SDS011;58360;0.000;0.000;2023-04-15T09:27:01;6.75;;;4.28;;
70761;SDS011;58360;0.000;0.000;2023-04-15T09:29:27;7.53;;;3.95;;
70761;SDS011;58360;0.000;0.000;2023-04-15T09:31:53;5.78;;;3.70;;
70761;SDS011;58360;0.000;0.000;2023-04-15T09:34:19;7.05;;;3.20;;
70761;SDS011;58360;0.000;0.000;2023-04-15T09:36:55;7.22;;;3.58;;
70761;SDS011;58360;0.000;0.000;2023-04-15T09:39:21;6.57;;;3.08;;
70761;SDS011;58360;0.000;0.000;2023-04-15T09:42:06;6.47;;;3.42;;
70761;SDS011;58360;0.000;0.000;2023-04-15T09:44:32;6.30;;;3.00;;
70761;SDS011;58360;0.000;0.000;2023-04-15T09:46:58;7.07;;;3.17;;
70761;SDS011;58360;0.000;0.000;2023-04-15T09:49:23;8.15;;;3.03;;
70761;SDS011;58360;0.000;0.000;2023-04-15T09:51:49;5.93;;;2.90;;
70761;SDS011;58360;0.000;0.000;2023-04-15T09:54:18;8.05;;;3.58;;
70761;SDS011;58360;0.000;0.000;2023-04-15T09:56:47;4.95;;;2.80;;
70761;SDS011;58360;0.000;0.000;2023-04-15T09:59:13;6.20;;;3.30;;
70761;SDS011;58360;0.000;0.000;2023-04-15T10:01:39;6.35;;;3.42;;
70761;SDS011;58360;0.000;0.000;2023-04-15T10:04:06;9.38;;;3.88;;
70761;SDS011;58360;0.000;0.000;2023-04-15T10:06:33;7.18;;;3.72;;
70761;SDS011;58360;0.000;0.000;2023-04-15T10:09:01;5.68;;;3.08;;
70761;SDS011;58360;0.000;0.000;2023-04-15T10:11:27;5.40;;;3.17;;
70761;SDS011;58360;0.000;0.000;2023-04-15T10:13:54;8.35;;;3.08;;
70761;SDS011;58360;0.000;0.000;2023-04-15T10:16:21;7.18;;;3.17;;
70761;SDS011;58360;0.000;0.000;2023-04-15T10:18:50;5.78;;;3.35;;
70761;SDS011;58360;0.000;0.000;2023-04-15T10:21:19;5.97;;;3.13;;
70761;SDS011;58360;0.000;0.000;2023-04-15T10:23:47;5.07;;;3.08;;
70761;SDS011;58360;0.000;0.000;2023-04-15T10:26:14;4.85;;;2.90;;
70761;SDS011;58360;0.000;0.000;2023-04-15T10:28:41;7.53;;;2.50;;
70761;SDS011;58360;0.000;0.000;2023-04-15T10:31:13;7.93;;;2.85;;
70761;SDS011;58360;0.000;0.000;2023-04-15T10:33:39;6.63;;;3.10;;
70761;SDS011;58360;0.000;0.000;2023-04-15T10:36:07;4.30;;;2.55;;
70761;SDS011;58360;0.000;0.000;2023-04-15T10:38:37;10.10;;;3.10;;
70761;SDS011;58360;0.000;0.000;2023-04-15T10:43:46;7.47;;;3.80;;
70761;SDS011;58360;0.000;0.000;2023-04-15T10:48:45;5.85;;;3.22;;
70761;SDS011;58360;0.000;0.000;2023-04-15T10:51:30;7.15;;;3.97;;
70761;SDS011;58360;0.000;0.000;2023-04-15T10:53:59;4.28;;;2.60;;
70761;SDS011;58360;0.000;0.000;2023-04-15T10:56:26;5.03;;;3.10;;
70761;SDS011;58360;0.000;0.000;2023-04-15T10:58:53;5.43;;;2.85;;
70761;SDS011;58360;0.000;0.000;2023-04-15T11:01:19;5.35;;;2.90;;
70761;SDS011;58360;0.000;0.000;2023-04-15T11:03:47;6.85;;;3.05;;
70761;SDS011;58360;0.000;0.000;2023-04-15T11:06:13;4.63;;;2.58;;
70761;SDS011;58360;0.000;0.000;2023-04-15T11:08:55;4.93;;;2.78;;
70761;SDS011;58360;0.000;0.000;2023-04-15T11:14:33;5.10;;;2.75;;
70761;SDS011;58360;0.000;0.000;2023-04-15T11:17:03;5.25;;;2.92;;
70761;SDS011;58360;0.000;0.000;2023-04-15T11:19:38;5.28;;;2.38;;
70761;SDS011;58360;0.000;0.000;2023-04-15T11:22:07;4.57;;;2.25;;
70761;SDS011;58360;0.000;0.000;2023-04-15T11:24:34;5.32;;;2.83;;
70761;SDS011;58360;0.000;0.000;2023-04-15T11:27:01;5.25;;;2.80;;
70761;SDS011;58360;0.000;0.000;2023-04-15T11:29:30;5.15;;;2.10;;
70761;SDS011;58360;0.000;0.000;2023-04-15T11:32:07;5.07;;;2.67;;
70761;SDS011;58360;0.000;0.000;2023-04-15T11:34:33;5.50;;;2.60;;
70761;SDS011;58360;0.000;0.000;2023-04-15T11:37:05;5.60;;;2.38;;
70761;SDS011;58360;0.000;0.000;2023-04-15T11:39:31;6.95;;;2.50;;
70761;SDS011;58360;0.000;0.000;2023-04-15T11:41:57;5.30;;;2.47;;
70761;SDS011;58360;0.000;0.000;2023-04-15T11:44:23;4.88;;;2.40;;
70761;SDS011;58360;0.000;0.000;2023-04-15T11:46:48;4.68;;;2.20;;
70761;SDS011;58360;0.000;0.000;2023-04-15T11:49:27;3.35;;;1.63;;
70761;SDS011;58360;0.000;0.000;2023-04-15T11:51:55;4.47;;;1.83;;
70761;SDS011;58360;0.000;0.000;2023-04-15T11:54:20;7.75;;;2.40;;
70761;SDS011;58360;0.000;0.000;2023-04-15T11:56:50;8.98;;;2.75;;
70761;SDS011;58360;0.000;0.000;2023-04-15T11:59:16;7.75;;;2.35;;
70761;SDS011;58360;0.000;0.000;2023-04-15T12:01:41;5.97;;;2.60;;
70761;SDS011;58360;0.000;0.000;2023-04-15T12:04:13;5.63;;;2.83;;
70761;SDS011;58360;0.000;0.000;2023-04-15T12:06:41;5.00;;;1.98;;
70761;SDS011;58360;0.000;0.000;2023-04-15T12:09:11;4.65;;;2.03;;
70761;SDS011;58360;0.000;0.000;2023-04-15T12:11:42;4.80;;;2.00;;
70761;SDS011;58360;0.000;0.000;2023-04-15T12:19:28;4.75;;;2.30;;
70761;SDS011;58360;0.000;0.000;2023-04-15T12:22:04;4.32;;;2.33;;
70761;SDS011;58360;0.000;0.000;2023-04-15T12:24:33;4.40;;;2.08;;
70761;SDS011;58360;0.000;0.000;2023-04-15T12:27:01;5.82;;;2.80;;
70761;SDS011;58360;0.000;0.000;2023-04-15T12:29:31;9.32;;;2.85;;
70761;SDS011;58360;0.000;0.000;2023-04-15T12:32:06;6.22;;;2.58;;
70761;SDS011;58360;0.000;0.000;2023-04-15T12:37:04;7.80;;;2.43;;
70761;SDS011;58360;0.000;0.000;2023-04-15T12:39:34;7.47;;;2.50;;
70761;SDS011;58360;0.000;0.000;2023-04-15T12:42:02;4.75;;;2.25;;
70761;SDS011;58360;0.000;0.000;2023-04-15T12:44:29;4.35;;;2.03;;
70761;SDS011;58360;0.000;0.000;2023-04-15T12:46:55;4.18;;;2.00;;
70761;SDS011;58360;0.000;0.000;2023-04-15T12:49:21;4.80;;;2.10;;
70761;SDS011;58360;0.000;0.000;2023-04-15T12:51:48;7.03;;;2.50;;
70761;SDS011;58360;0.000;0.000;2023-04-15T12:54:15;6.10;;;2.70;;
70761;SDS011;58360;0.000;0.000;2023-04-15T12:56:42;6.53;;;2.58;;
70761;SDS011;58360;0.000;0.000;2023-04-15T12:59:12;6.95;;;2.58;;
70761;SDS011;58360;0.000;0.000;2023-04-15T13:01:38;7.30;;;3.00;;
70761;SDS011;58360;0.000;0.000;2023-04-15T13:04:04;5.60;;;2.35;;
70761;SDS011;58360;0.000;0.000;2023-04-15T13:06:30;4.80;;;2.33;;
70761;SDS011;58360;0.000;0.000;2023-04-15T13:09:00;4.30;;;2.00;;
70761;SDS011;58360;0.000;0.000;2023-04-15T13:11:27;6.25;;;2.30;;
70761;SDS011;58360;0.000;0.000;2023-04-15T13:14:01;8.15;;;1.90;;
70761;SDS011;58360;0.000;0.000;2023-04-15T13:16:28;5.72;;;2.20;;
70761;SDS011;58360;0.000;0.000;2023-04-15T13:18:54;7.85;;;2.33;;
70761;SDS011;58360;0.000;0.000;2023-04-15T13:21:20;3.92;;;1.73;;
70761;SDS011;58360;0.000;0.000;2023-04-15T13:23:46;7.80;;;2.00;;
70761;SDS011;58360;0.000;0.000;2023-04-15T13:26:14;6.70;;;2.35;;
70761;SDS011;58360;0.000;0.000;2023-04-15T13:28:40;7.47;;;2.00;;
70761;SDS011;58360;0.000;0.000;2023-04-15T13:31:05;4.75;;;1.83;;
70761;SDS011;58360;0.000;0.000;2023-04-15T13:33:31;7.10;;;2.17;;
70761;SDS011;58360;0.000;0.000;2023-04-15T13:35:57;4.07;;;1.58;;
70761;SDS011;58360;0.000;0.000;2023-04-15T13:38:23;4.15;;;1.35;;
70761;SDS011;58360;0.000;0.000;2023-04-15T13:40:49;3.60;;;1.33;;
70761;SDS011;58360;0.000;0.000;2023-04-15T13:43:15;3.90;;;1.40;;
70761;SDS011;58360;0.000;0.000;2023-04-15T13:45:41;4.15;;;1.33;;
70761;SDS011;58360;0.000;0.000;2023-04-15T13:48:07;4.68;;;1.35;;
70761;SDS011;58360;0.000;0.000;2023-04-15T13:50:33;7.93;;;2.13;;
70761;SDS011;58360;0.000;0.000;2023-04-15T13:52:59;4.00;;;1.50;;
70761;SDS011;58360;0.000;0.000;2023-04-15T13:55:25;4.75;;;1.45;;
70761;SDS011;58360;0.000;0.000;2023-04-15T13:57:50;6.13;;;1.80;;
70761;SDS011;58360;0.000;0.000;2023-04-15T14:00:16;5.28;;;1.90;;
70761;SDS011;58360;0.000;0.000;2023-04-15T14:02:42;6.78;;;1.88;;
70761;SDS011;58360;0.000;0.000;2023-04-15T14:05:08;5.10;;;1.85;;
70761;SDS011;58360;0.000;0.000;2023-04-15T14:07:34;3.67;;;1.67;;
70761;SDS011;58360;0.000;0.000;2023-04-15T14:10:00;3.58;;;1.80;;
70761;SDS011;58360;0.000;0.000;2023-04-15T14:12:26;5.25;;;1.98;;
70761;SDS011;58360;0.000;0.000;2023-04-15T14:14:51;6.95;;;2.05;;
70761;SDS011;58360;0.000;0.000;2023-04-15T14:17:17;7.30;;;2.10;;
70761;SDS011;58360;0.000;0.000;2023-04-15T14:19:43;6.88;;;1.75;;
70761;SDS011;58360;0.000;0.000;2023-04-15T14:22:09;6.32;;;2.22;;
70761;SDS011;58360;0.000;0.000;2023-04-15T14:24:35;4.72;;;2.10;;
70761;SDS011;58360;0.000;0.000;2023-04-15T14:27:00;4.55;;;2.00;;
70761;SDS011;58360;0.000;0.000;2023-04-15T14:29:27;5.00;;;2.22;;
70761;SDS011;58360;0.000;0.000;2023-04-15T14:31:52;5.22;;;2.10;;
70761;SDS011;58360;0.000;0.000;2023-04-15T14:34:21;6.03;;;2.25;;
70761;SDS011;58360;0.000;0.000;2023-04-15T14:36:49;5.10;;;2.45;;
70761;SDS011;58360;0.000;0.000;2023-04-15T14:39:15;5.25;;;2.50;;
70761;SDS011;58360;0.000;0.000;2023-04-15T14:41:41;3.88;;;2.00;;
70761;SDS011;58360;0.000;0.000;2023-04-15T14:44:06;5.93;;;2.30;;
70761;SDS011;58360;0.000;0.000;2023-04-15T14:46:33;4.50;;;2.20;;
70761;SDS011;58360;0.000;0.000;2023-04-15T14:48:59;4.88;;;2.50;;
70761;SDS011;58360;0.000;0.000;2023-04-15T14:51:25;5.15;;;1.80;;
70761;SDS011;58360;0.000;0.000;2023-04-15T14:53:51;5.72;;;2.45;;
70761;SDS011;58360;0.000;0.000;2023-04-15T14:56:16;14.85;;;3.13;;
70761;SDS011;58360;0.000;0.000;2023-04-15T14:58:42;6.53;;;2.85;;
70761;SDS011;58360;0.000;0.000;2023-04-15T15:01:08;8.82;;;3.50;;
70761;SDS011;58360;0.000;0.000;2023-04-15T15:03:34;7.25;;;3.95;;
70761;SDS011;58360;0.000;0.000;2023-04-15T15:06:00;13.40;;;5.90;;
70761;SDS011;58360;0.000;0.000;2023-04-15T15:08:25;12.65;;;5.63;;
70761;SDS011;58360;0.000;0.000;2023-04-15T15:10:51;12.00;;;5.78;;